sensor_id;sensor_type;location;lat;lon;timestamp;temperature;humidity
30467;DHT22;17258;52.560;13.046;2024-02-21T00:07:51;13.50;65.90
30467;DHT22;17258;52.560;13.046;2024-02-21T00:17:52;13.50;65.90
30467;DHT22;17258;52.560;13.046;2024-02-21T00:27:53;13.50;65.80
30467;DHT22;17258;52.560;13.046;2024-02-21T00:37:54;13.50;65.80
30467;DHT22;17258;52.560;13.046;2024-02-21T00:47:54;13.50;65.80
30467;DHT22;17258;52.560;13.046;2024-02-21T00:57:55;13.50;65.80
30467;DHT22;17258;52.560;13.046;2024-02-21T01:07:56;13.40;65.80
30467;DHT22;17258;52.560;13.046;2024-02-21T01:17:56;13.40;65.80
30467;DHT22;17258;52.560;13.046;2024-02-21T01:27:57;13.40;65.90
30467;DHT22;17258;52.560;13.046;2024-02-21T01:37:58;13.50;66.10
30467;DHT22;17258;52.560;13.046;2024-02-21T01:47:58;13.50;66.00
30467;DHT22;17258;52.560;13.046;2024-02-21T01:57:59;13.50;65.90
30467;DHT22;17258;52.560;13.046;2024-02-21T02:08:00;13.50;65.90
30467;DHT22;17258;52.560;13.046;2024-02-21T02:18:00;13.50;66.00
30467;DHT22;17258;52.560;13.046;2024-02-21T02:28:01;13.40;66.10
30467;DHT22;17258;52.560;13.046;2024-02-21T02:38:05;13.40;66.10
30467;DHT22;17258;52.560;13.046;2024-02-21T02:48:06;13.40;66.20
30467;DHT22;17258;52.560;13.046;2024-02-21T02:58:07;13.40;66.20
30467;DHT22;17258;52.560;13.046;2024-02-21T03:08:09;13.30;66.30
30467;DHT22;17258;52.560;13.046;2024-02-21T03:18:09;13.30;66.50
30467;DHT22;17258;52.560;13.046;2024-02-21T03:28:10;13.20;66.60
30467;DHT22;17258;52.560;13.046;2024-02-21T03:38:11;13.10;66.80
30467;DHT22;17258;52.560;13.046;2024-02-21T03:48:11;13.10;66.90
30467;DHT22;17258;52.560;13.046;2024-02-21T03:58:12;13.10;67.00
30467;DHT22;17258;52.560;13.046;2024-02-21T04:08:13;13.10;67.00
30467;DHT22;17258;52.560;13.046;2024-02-21T04:18:13;13.20;67.20
30467;DHT22;17258;52.560;13.046;2024-02-21T04:28:15;13.20;67.20
30467;DHT22;17258;52.560;13.046;2024-02-21T04:38:15;13.20;67.10
30467;DHT22;17258;52.560;13.046;2024-02-21T04:48:16;13.20;67.20
30467;DHT22;17258;52.560;13.046;2024-02-21T04:58:17;13.20;67.10
30467;DHT22;17258;52.560;13.046;2024-02-21T05:08:18;13.20;67.20
30467;DHT22;17258;52.560;13.046;2024-02-21T05:18:18;13.20;67.20
30467;DHT22;17258;52.560;13.046;2024-02-21T05:28:20;13.20;67.20
30467;DHT22;17258;52.560;13.046;2024-02-21T05:38:21;13.20;67.30
30467;DHT22;17258;52.560;13.046;2024-02-21T05:48:25;13.20;67.40
30467;DHT22;17258;52.560;13.046;2024-02-21T05:58:26;13.20;67.40
30467;DHT22;17258;52.560;13.046;2024-02-21T06:08:26;13.20;67.40
30467;DHT22;17258;52.560;13.046;2024-02-21T06:18:27;13.20;67.60
30467;DHT22;17258;52.560;13.046;2024-02-21T06:28:28;13.20;67.60
30467;DHT22;17258;52.560;13.046;2024-02-21T06:38:28;13.20;67.70
30467;DHT22;17258;52.560;13.046;2024-02-21T06:48:29;13.30;67.90
30467;DHT22;17258;52.560;13.046;2024-02-21T06:58:30;13.20;68.10
30467;DHT22;17258;52.560;13.046;2024-02-21T07:08:31;13.30;68.20
30467;DHT22;17258;52.560;13.046;2024-02-21T07:18:31;13.30;68.10
30467;DHT22;17258;52.560;13.046;2024-02-21T07:28:32;13.30;68.10
30467;DHT22;17258;52.560;13.046;2024-02-21T07:38:33;13.40;68.10
30467;DHT22;17258;52.560;13.046;2024-02-21T07:48:34;13.50;68.10
30467;DHT22;17258;52.560;13.046;2024-02-21T07:58:35;13.60;68.00
30467;DHT22;17258;52.560;13.046;2024-02-21T08:08:35;13.60;67.90
30467;DHT22;17258;52.560;13.046;2024-02-21T08:18:36;13.70;68.00
30467;DHT22;17258;52.560;13.046;2024-02-21T08:28:38;13.70;68.00
30467;DHT22;17258;52.560;13.046;2024-02-21T08:38:39;13.80;68.20
30467;DHT22;17258;52.560;13.046;2024-02-21T08:48:39;13.90;68.30
30467;DHT22;17258;52.560;13.046;2024-02-21T08:58:41;14.00;68.10
30467;DHT22;17258;52.560;13.046;2024-02-21T09:08:41;14.10;68.10
30467;DHT22;17258;52.560;13.046;2024-02-21T09:18:42;14.20;68.90
30467;DHT22;17258;52.560;13.046;2024-02-21T09:28:43;14.30;68.00
30467;DHT22;17258;52.560;13.046;2024-02-21T09:38:45;14.40;68.40
30467;DHT22;17258;52.560;13.046;2024-02-21T09:59:32;14.80;67.70
30467;DHT22;17258;52.560;13.046;2024-02-21T10:09:33;14.90;67.20
30467;DHT22;17258;52.560;13.046;2024-02-21T10:19:34;14.90;67.50
30467;DHT22;17258;52.560;13.046;2024-02-21T10:29:35;15.00;67.10
30467;DHT22;17258;52.560;13.046;2024-02-21T10:39:38;15.10;66.70
30467;DHT22;17258;52.560;13.046;2024-02-21T10:49:41;15.10;66.80
30467;DHT22;17258;52.560;13.046;2024-02-21T10:59:45;15.20;67.00
30467;DHT22;17258;52.560;13.046;2024-02-21T11:09:53;15.20;67.20
30467;DHT22;17258;52.560;13.046;2024-02-21T11:19:57;15.40;67.40
30467;DHT22;17258;52.560;13.046;2024-02-21T11:29:59;15.60;67.90
30467;DHT22;17258;52.560;13.046;2024-02-21T11:40:00;16.00;67.30
30467;DHT22;17258;52.560;13.046;2024-02-21T11:50:01;16.20;66.60
30467;DHT22;17258;52.560;13.046;2024-02-21T12:00:14;16.40;65.80
30467;DHT22;17258;52.560;13.046;2024-02-21T12:10:15;16.50;65.00
30467;DHT22;17258;52.560;13.046;2024-02-21T12:20:16;16.60;64.80
30467;DHT22;17258;52.560;13.046;2024-02-21T12:30:17;16.60;64.90
30467;DHT22;17258;52.560;13.046;2024-02-21T12:40:18;16.70;65.10
30467;DHT22;17258;52.560;13.046;2024-02-21T12:50:18;16.80;65.50
30467;DHT22;17258;52.560;13.046;2024-02-21T13:00:20;17.10;65.50
30467;DHT22;17258;52.560;13.046;2024-02-21T13:10:21;17.30;64.60
30467;DHT22;17258;52.560;13.046;2024-02-21T13:20:22;17.40;64.20
30467;DHT22;17258;52.560;13.046;2024-02-21T13:30:22;17.60;64.40
30467;DHT22;17258;52.560;13.046;2024-02-21T13:40:23;17.60;63.90
30467;DHT22;17258;52.560;13.046;2024-02-21T13:50:30;17.70;64.30
30467;DHT22;17258;52.560;13.046;2024-02-21T14:00:31;17.80;63.70
30467;DHT22;17258;52.560;13.046;2024-02-21T14:10:34;17.80;63.20
30467;DHT22;17258;52.560;13.046;2024-02-21T14:20:37;17.80;63.10
30467;DHT22;17258;52.560;13.046;2024-02-21T14:30:37;17.70;62.80
30467;DHT22;17258;52.560;13.046;2024-02-21T14:40:38;17.60;63.50
30467;DHT22;17258;52.560;13.046;2024-02-21T14:50:39;17.50;63.00
30467;DHT22;17258;52.560;13.046;2024-02-21T15:00:39;17.50;63.80
30467;DHT22;17258;52.560;13.046;2024-02-21T15:10:41;17.50;62.90
30467;DHT22;17258;52.560;13.046;2024-02-21T15:20:42;17.50;62.60
30467;DHT22;17258;52.560;13.046;2024-02-21T15:30:43;17.50;62.40
30467;DHT22;17258;52.560;13.046;2024-02-21T15:40:44;17.40;62.20
30467;DHT22;17258;52.560;13.046;2024-02-21T15:50:44;17.20;62.20
30467;DHT22;17258;52.560;13.046;2024-02-21T16:00:45;17.00;62.30
30467;DHT22;17258;52.560;13.046;2024-02-21T16:10:46;16.90;62.20
30467;DHT22;17258;52.560;13.046;2024-02-21T16:20:47;16.70;62.30
30467;DHT22;17258;52.560;13.046;2024-02-21T16:30:48;16.50;62.20
30467;DHT22;17258;52.560;13.046;2024-02-21T16:40:48;16.20;62.10
30467;DHT22;17258;52.560;13.046;2024-02-21T16:50:50;16.00;62.40
30467;DHT22;17258;52.560;13.046;2024-02-21T17:00:51;15.80;62.20
30467;DHT22;17258;52.560;13.046;2024-02-21T17:10:52;15.50;62.10
30467;DHT22;17258;52.560;13.046;2024-02-21T17:20:52;15.30;62.30
30467;DHT22;17258;52.560;13.046;2024-02-21T17:30:53;15.00;62.40
30467;DHT22;17258;52.560;13.046;2024-02-21T17:40:53;14.80;62.60
30467;DHT22;17258;52.560;13.046;2024-02-21T17:50:54;14.60;62.70
30467;DHT22;17258;52.560;13.046;2024-02-21T18:00:56;14.50;62.80
30467;DHT22;17258;52.560;13.046;2024-02-21T18:11:00;14.30;62.80
30467;DHT22;17258;52.560;13.046;2024-02-21T18:21:01;14.20;63.00
30467;DHT22;17258;52.560;13.046;2024-02-21T18:31:02;14.10;63.20
30467;DHT22;17258;52.560;13.046;2024-02-21T18:41:06;14.00;63.30
30467;DHT22;17258;52.560;13.046;2024-02-21T18:51:08;14.00;64.10
30467;DHT22;17258;52.560;13.046;2024-02-21T19:01:09;13.90;63.40
30467;DHT22;17258;52.560;13.046;2024-02-21T19:11:09;13.90;63.50
30467;DHT22;17258;52.560;13.046;2024-02-21T19:21:10;13.80;63.40
30467;DHT22;17258;52.560;13.046;2024-02-21T19:31:11;13.70;63.50
30467;DHT22;17258;52.560;13.046;2024-02-21T19:41:12;13.70;63.50
30467;DHT22;17258;52.560;13.046;2024-02-21T19:51:13;13.60;63.50
30467;DHT22;17258;52.560;13.046;2024-02-21T20:01:16;13.60;63.70
30467;DHT22;17258;52.560;13.046;2024-02-21T20:11:18;13.50;63.70
30467;DHT22;17258;52.560;13.046;2024-02-21T20:21:19;13.50;64.70
30467;DHT22;17258;52.560;13.046;2024-02-21T20:31:20;13.50;64.00
30467;DHT22;17258;52.560;13.046;2024-02-21T20:41:25;13.50;64.10
30467;DHT22;17258;52.560;13.046;2024-02-21T20:51:26;13.60;64.10
30467;DHT22;17258;52.560;13.046;2024-02-21T21:01:27;13.60;64.10
30467;DHT22;17258;52.560;13.046;2024-02-21T21:11:27;13.60;64.10
30467;DHT22;17258;52.560;13.046;2024-02-21T21:21:29;13.70;64.10
30467;DHT22;17258;52.560;13.046;2024-02-21T21:31:32;13.70;64.00
30467;DHT22;17258;52.560;13.046;2024-02-21T21:41:32;13.80;64.00
30467;DHT22;17258;52.560;13.046;2024-02-21T21:51:34;13.80;63.90
30467;DHT22;17258;52.560;13.046;2024-02-21T22:01:35;13.80;63.80
30467;DHT22;17258;52.560;13.046;2024-02-21T22:11:36;13.80;63.80
30467;DHT22;17258;52.560;13.046;2024-02-21T22:21:36;13.90;63.70
30467;DHT22;17258;52.560;13.046;2024-02-21T22:31:37;13.90;63.70
30467;DHT22;17258;52.560;13.046;2024-02-21T22:41:40;13.90;63.70
30467;DHT22;17258;52.560;13.046;2024-02-21T22:51:45;13.90;63.50
30467;DHT22;17258;52.560;13.046;2024-02-21T23:01:45;14.00;63.50
30467;DHT22;17258;52.560;13.046;2024-02-21T23:11:46;14.00;63.40
30467;DHT22;17258;52.560;13.046;2024-02-21T23:21:47;14.00;63.30
30467;DHT22;17258;52.560;13.046;2024-02-21T23:31:48;14.00;63.30
30467;DHT22;17258;52.560;13.046;2024-02-21T23:41:50;14.00;63.20
30467;DHT22;17258;52.560;13.046;2024-02-21T23:51:51;14.10;63.20
